sensor_id;sensor_type;location;lat;lon;timestamp;temperature;humidity
34873;DHT22;21084;51.098;14.506;2022-11-20T00:01:41;-6.00;99.90
34873;DHT22;21084;51.098;14.506;2022-11-20T00:04:10;-6.10;99.90
34873;DHT22;21084;51.098;14.506;2022-11-20T00:06:38;-6.10;99.90
34873;DHT22;21084;51.098;14.506;2022-11-20T00:09:10;-6.10;99.90
34873;DHT22;21084;51.098;14.506;2022-11-20T00:11:38;-6.10;99.90
34873;DHT22;21084;51.098;14.506;2022-11-20T00:14:08;-6.00;99.90
34873;DHT22;21084;51.098;14.506;2022-11-20T00:16:37;-6.00;99.90
34873;DHT22;21084;51.098;14.506;2022-11-20T00:19:06;-6.00;99.90
34873;DHT22;21084;51.098;14.506;2022-11-20T00:21:35;-6.00;99.90
34873;DHT22;21084;51.098;14.506;2022-11-20T00:24:03;-5.90;99.90
34873;DHT22;21084;51.098;14.506;2022-11-20T00:26:33;-6.00;99.90
34873;DHT22;21084;51.098;14.506;2022-11-20T00:29:02;-5.90;99.90
34873;DHT22;21084;51.098;14.506;2022-11-20T00:31:32;-5.90;99.90
34873;DHT22;21084;51.098;14.506;2022-11-20T00:34:01;-5.90;99.90
34873;DHT22;21084;51.098;14.506;2022-11-20T00:36:32;-5.90;99.90
34873;DHT22;21084;51.098;14.506;2022-11-20T00:39:01;-5.90;99.90
34873;DHT22;21084;51.098;14.506;2022-11-20T00:41:33;-5.90;99.90
34873;DHT22;21084;51.098;14.506;2022-11-20T00:44:03;-5.90;99.90
34873;DHT22;21084;51.098;14.506;2022-11-20T00:46:35;-6.00;99.90
34873;DHT22;21084;51.098;14.506;2022-11-20T00:49:04;-5.80;99.90
34873;DHT22;21084;51.098;14.506;2022-11-20T00:51:38;-5.90;99.90
34873;DHT22;21084;51.098;14.506;2022-11-20T00:54:09;-5.90;99.90
34873;DHT22;21084;51.098;14.506;2022-11-20T00:56:40;-5.80;99.90
34873;DHT22;21084;51.098;14.506;2022-11-20T00:59:10;-5.90;99.90
34873;DHT22;21084;51.098;14.506;2022-11-20T01:01:39;-5.80;99.90
34873;DHT22;21084;51.098;14.506;2022-11-20T01:04:08;-5.90;99.90
34873;DHT22;21084;51.098;14.506;2022-11-20T01:06:39;-5.80;99.90
34873;DHT22;21084;51.098;14.506;2022-11-20T01:09:10;-5.80;99.90
34873;DHT22;21084;51.098;14.506;2022-11-20T01:11:43;-5.90;99.90
34873;DHT22;21084;51.098;14.506;2022-11-20T01:14:13;-5.90;99.90
34873;DHT22;21084;51.098;14.506;2022-11-20T01:16:45;-5.90;99.90
34873;DHT22;21084;51.098;14.506;2022-11-20T01:19:16;-6.00;99.90
34873;DHT22;21084;51.098;14.506;2022-11-20T01:21:53;-6.00;99.90
34873;DHT22;21084;51.098;14.506;2022-11-20T01:24:22;-6.10;99.90
34873;DHT22;21084;51.098;14.506;2022-11-20T01:26:52;-6.20;99.90
34873;DHT22;21084;51.098;14.506;2022-11-20T01:29:22;-6.20;99.90
34873;DHT22;21084;51.098;14.506;2022-11-20T01:31:53;-6.20;99.90
34873;DHT22;21084;51.098;14.506;2022-11-20T01:34:21;-6.20;99.90
34873;DHT22;21084;51.098;14.506;2022-11-20T01:36:52;-6.20;99.90
34873;DHT22;21084;51.098;14.506;2022-11-20T01:39:22;-6.20;99.90
34873;DHT22;21084;51.098;14.506;2022-11-20T01:41:55;-6.20;99.90
34873;DHT22;21084;51.098;14.506;2022-11-20T01:44:53;-6.20;99.90
34873;DHT22;21084;51.098;14.506;2022-11-20T01:47:27;-6.20;99.90
34873;DHT22;21084;51.098;14.506;2022-11-20T01:50:01;-6.30;99.90
34873;DHT22;21084;51.098;14.506;2022-11-20T01:52:33;-6.30;99.90
34873;DHT22;21084;51.098;14.506;2022-11-20T01:55:14;-6.30;99.90
34873;DHT22;21084;51.098;14.506;2022-11-20T01:57:48;-6.30;99.90
34873;DHT22;21084;51.098;14.506;2022-11-20T02:00:18;-6.30;99.90
34873;DHT22;21084;51.098;14.506;2022-11-20T02:02:52;-6.40;99.90
34873;DHT22;21084;51.098;14.506;2022-11-20T02:05:24;-6.40;99.90
34873;DHT22;21084;51.098;14.506;2022-11-20T02:07:54;-6.40;99.90
34873;DHT22;21084;51.098;14.506;2022-11-20T02:10:24;-6.40;99.90
34873;DHT22;21084;51.098;14.506;2022-11-20T02:12:55;-6.40;99.90
34873;DHT22;21084;51.098;14.506;2022-11-20T02:15:41;-6.40;99.90
34873;DHT22;21084;51.098;14.506;2022-11-20T02:18:11;-6.40;99.90
34873;DHT22;21084;51.098;14.506;2022-11-20T02:20:42;-6.40;99.90
34873;DHT22;21084;51.098;14.506;2022-11-20T02:23:13;-6.40;99.90
34873;DHT22;21084;51.098;14.506;2022-11-20T02:25:47;-6.40;99.90
34873;DHT22;21084;51.098;14.506;2022-11-20T02:28:17;-6.40;99.90
34873;DHT22;21084;51.098;14.506;2022-11-20T02:30:45;-6.40;99.90
34873;DHT22;21084;51.098;14.506;2022-11-20T02:33:13;-6.50;99.90
34873;DHT22;21084;51.098;14.506;2022-11-20T02:35:44;-6.50;99.90
34873;DHT22;21084;51.098;14.506;2022-11-20T02:38:13;-6.50;99.90
34873;DHT22;21084;51.098;14.506;2022-11-20T02:40:42;-6.40;99.90
34873;DHT22;21084;51.098;14.506;2022-11-20T02:43:12;-6.30;99.90
34873;DHT22;21084;51.098;14.506;2022-11-20T02:45:40;-6.20;99.90
34873;DHT22;21084;51.098;14.506;2022-11-20T02:48:09;-6.20;99.90
34873;DHT22;21084;51.098;14.506;2022-11-20T02:50:38;-6.20;99.90
34873;DHT22;21084;51.098;14.506;2022-11-20T02:53:07;-6.10;99.90
34873;DHT22;21084;51.098;14.506;2022-11-20T02:55:36;-6.00;99.90
34873;DHT22;21084;51.098;14.506;2022-11-20T02:58:05;-6.10;99.90
34873;DHT22;21084;51.098;14.506;2022-11-20T03:00:37;-6.10;99.90
34873;DHT22;21084;51.098;14.506;2022-11-20T03:03:08;-6.10;99.90
34873;DHT22;21084;51.098;14.506;2022-11-20T03:05:36;-6.00;99.90
34873;DHT22;21084;51.098;14.506;2022-11-20T03:08:04;-6.10;99.90
34873;DHT22;21084;51.098;14.506;2022-11-20T03:10:33;-6.20;99.90
34873;DHT22;21084;51.098;14.506;2022-11-20T03:13:04;-6.20;99.90
34873;DHT22;21084;51.098;14.506;2022-11-20T03:15:32;-6.20;99.90
34873;DHT22;21084;51.098;14.506;2022-11-20T03:18:04;-6.20;99.90
34873;DHT22;21084;51.098;14.506;2022-11-20T03:20:33;-6.30;99.90
34873;DHT22;21084;51.098;14.506;2022-11-20T03:23:01;-6.30;99.90
34873;DHT22;21084;51.098;14.506;2022-11-20T03:25:30;-6.30;99.90
34873;DHT22;21084;51.098;14.506;2022-11-20T03:27:59;-6.30;99.90
34873;DHT22;21084;51.098;14.506;2022-11-20T03:30:27;-6.40;99.90
34873;DHT22;21084;51.098;14.506;2022-11-20T03:32:56;-6.40;99.90
34873;DHT22;21084;51.098;14.506;2022-11-20T03:35:28;-6.40;99.90
34873;DHT22;21084;51.098;14.506;2022-11-20T03:37:57;-6.40;99.90
34873;DHT22;21084;51.098;14.506;2022-11-20T03:40:26;-6.40;99.90
34873;DHT22;21084;51.098;14.506;2022-11-20T03:42:55;-6.40;99.90
34873;DHT22;21084;51.098;14.506;2022-11-20T03:45:23;-6.40;99.90
34873;DHT22;21084;51.098;14.506;2022-11-20T03:47:51;-6.50;99.90
34873;DHT22;21084;51.098;14.506;2022-11-20T03:50:20;-6.50;99.90
34873;DHT22;21084;51.098;14.506;2022-11-20T03:52:50;-6.50;99.90
34873;DHT22;21084;51.098;14.506;2022-11-20T03:55:19;-6.50;99.90
34873;DHT22;21084;51.098;14.506;2022-11-20T03:57:48;-6.60;99.90
34873;DHT22;21084;51.098;14.506;2022-11-20T04:00:16;-6.50;99.90
34873;DHT22;21084;51.098;14.506;2022-11-20T04:02:44;-6.50;99.90
34873;DHT22;21084;51.098;14.506;2022-11-20T04:05:14;-6.50;99.90
34873;DHT22;21084;51.098;14.506;2022-11-20T04:07:42;-6.60;99.90
34873;DHT22;21084;51.098;14.506;2022-11-20T04:10:13;-6.60;99.90
34873;DHT22;21084;51.098;14.506;2022-11-20T04:12:41;-6.60;99.90
34873;DHT22;21084;51.098;14.506;2022-11-20T04:15:10;-6.60;99.90
34873;DHT22;21084;51.098;14.506;2022-11-20T04:17:38;-6.60;99.90
34873;DHT22;21084;51.098;14.506;2022-11-20T04:20:07;-6.60;99.90
34873;DHT22;21084;51.098;14.506;2022-11-20T04:22:37;-6.60;99.90
34873;DHT22;21084;51.098;14.506;2022-11-20T04:25:05;-6.60;99.90
34873;DHT22;21084;51.098;14.506;2022-11-20T04:27:35;-6.60;99.90
34873;DHT22;21084;51.098;14.506;2022-11-20T04:30:05;-6.50;99.90
34873;DHT22;21084;51.098;14.506;2022-11-20T04:32:33;-6.60;99.90
34873;DHT22;21084;51.098;14.506;2022-11-20T04:35:01;-6.50;99.90
34873;DHT22;21084;51.098;14.506;2022-11-20T04:37:30;-6.50;99.90
34873;DHT22;21084;51.098;14.506;2022-11-20T04:39:58;-6.50;99.90
34873;DHT22;21084;51.098;14.506;2022-11-20T04:42:28;-6.60;99.90
34873;DHT22;21084;51.098;14.506;2022-11-20T04:44:59;-6.60;99.90
34873;DHT22;21084;51.098;14.506;2022-11-20T04:47:28;-6.60;99.90
34873;DHT22;21084;51.098;14.506;2022-11-20T04:49:58;-6.70;99.90
34873;DHT22;21084;51.098;14.506;2022-11-20T04:52:26;-6.60;99.90
34873;DHT22;21084;51.098;14.506;2022-11-20T04:54:55;-6.70;99.90
34873;DHT22;21084;51.098;14.506;2022-11-20T04:57:23;-6.70;99.90
34873;DHT22;21084;51.098;14.506;2022-11-20T04:59:51;-6.70;99.90
34873;DHT22;21084;51.098;14.506;2022-11-20T05:02:23;-6.80;99.90
34873;DHT22;21084;51.098;14.506;2022-11-20T05:04:51;-6.80;99.90
34873;DHT22;21084;51.098;14.506;2022-11-20T05:07:20;-6.80;99.90
34873;DHT22;21084;51.098;14.506;2022-11-20T05:09:48;-6.80;99.90
34873;DHT22;21084;51.098;14.506;2022-11-20T05:12:17;-6.80;99.90
34873;DHT22;21084;51.098;14.506;2022-11-20T05:14:45;-6.90;99.90
34873;DHT22;21084;51.098;14.506;2022-11-20T05:17:14;-6.80;99.90
34873;DHT22;21084;51.098;14.506;2022-11-20T05:19:45;-6.90;99.90
34873;DHT22;21084;51.098;14.506;2022-11-20T05:22:18;-6.90;99.90
34873;DHT22;21084;51.098;14.506;2022-11-20T05:24:47;-6.80;99.90
34873;DHT22;21084;51.098;14.506;2022-11-20T05:27:17;-6.90;99.90
34873;DHT22;21084;51.098;14.506;2022-11-20T05:29:46;-6.90;99.90
34873;DHT22;21084;51.098;14.506;2022-11-20T05:32:14;-7.00;99.90
34873;DHT22;21084;51.098;14.506;2022-11-20T05:34:46;-7.00;99.90
34873;DHT22;21084;51.098;14.506;2022-11-20T05:37:16;-7.00;99.90
34873;DHT22;21084;51.098;14.506;2022-11-20T05:39:45;-7.10;99.90
34873;DHT22;21084;51.098;14.506;2022-11-20T05:42:14;-7.10;99.90
34873;DHT22;21084;51.098;14.506;2022-11-20T05:45:02;-7.10;99.90
34873;DHT22;21084;51.098;14.506;2022-11-20T05:47:33;-7.10;99.90
34873;DHT22;21084;51.098;14.506;2022-11-20T05:50:04;-7.10;99.90
34873;DHT22;21084;51.098;14.506;2022-11-20T05:52:40;-7.10;99.90
34873;DHT22;21084;51.098;14.506;2022-11-20T05:55:09;-7.10;99.90
34873;DHT22;21084;51.098;14.506;2022-11-20T05:57:39;-7.20;99.90
34873;DHT22;21084;51.098;14.506;2022-11-20T06:00:08;-7.10;99.90
34873;DHT22;21084;51.098;14.506;2022-11-20T06:02:37;-7.10;99.90
34873;DHT22;21084;51.098;14.506;2022-11-20T06:05:09;-7.20;99.90
34873;DHT22;21084;51.098;14.506;2022-11-20T06:07:39;-7.20;99.90
34873;DHT22;21084;51.098;14.506;2022-11-20T06:10:08;-7.20;99.90
34873;DHT22;21084;51.098;14.506;2022-11-20T06:12:37;-7.20;99.90
34873;DHT22;21084;51.098;14.506;2022-11-20T06:15:06;-7.20;99.90
34873;DHT22;21084;51.098;14.506;2022-11-20T06:17:36;-7.20;99.90
34873;DHT22;21084;51.098;14.506;2022-11-20T06:20:09;-7.30;99.90
34873;DHT22;21084;51.098;14.506;2022-11-20T06:22:39;-7.30;99.90
34873;DHT22;21084;51.098;14.506;2022-11-20T06:25:08;-7.30;99.90
34873;DHT22;21084;51.098;14.506;2022-11-20T06:27:38;-7.30;99.90
34873;DHT22;21084;51.098;14.506;2022-11-20T06:30:08;-7.40;99.90
34873;DHT22;21084;51.098;14.506;2022-11-20T06:32:38;-7.40;99.90
34873;DHT22;21084;51.098;14.506;2022-11-20T06:35:11;-7.40;99.90
34873;DHT22;21084;51.098;14.506;2022-11-20T06:37:41;-7.30;99.90
34873;DHT22;21084;51.098;14.506;2022-11-20T06:40:12;-7.30;99.90
34873;DHT22;21084;51.098;14.506;2022-11-20T06:42:42;-7.30;99.90
34873;DHT22;21084;51.098;14.506;2022-11-20T06:45:15;-7.30;99.90
34873;DHT22;21084;51.098;14.506;2022-11-20T06:47:49;-7.30;99.90
34873;DHT22;21084;51.098;14.506;2022-11-20T06:50:36;-7.30;99.90
34873;DHT22;21084;51.098;14.506;2022-11-20T06:53:05;-7.20;99.90
34873;DHT22;21084;51.098;14.506;2022-11-20T06:55:36;-7.20;99.90
34873;DHT22;21084;51.098;14.506;2022-11-20T06:58:06;-7.10;99.90
34873;DHT22;21084;51.098;14.506;2022-11-20T07:00:39;-7.10;99.90
34873;DHT22;21084;51.098;14.506;2022-11-20T07:03:09;-7.10;99.90
34873;DHT22;21084;51.098;14.506;2022-11-20T07:05:41;-7.10;99.90
34873;DHT22;21084;51.098;14.506;2022-11-20T07:08:11;-7.00;99.90
34873;DHT22;21084;51.098;14.506;2022-11-20T07:10:41;-6.90;99.90
34873;DHT22;21084;51.098;14.506;2022-11-20T07:13:10;-6.90;99.90
34873;DHT22;21084;51.098;14.506;2022-11-20T07:15:39;-6.80;99.90
34873;DHT22;21084;51.098;14.506;2022-11-20T07:18:13;-6.70;99.90
34873;DHT22;21084;51.098;14.506;2022-11-20T07:20:45;-6.60;99.90
34873;DHT22;21084;51.098;14.506;2022-11-20T07:23:15;-6.50;99.90
34873;DHT22;21084;51.098;14.506;2022-11-20T07:25:43;-6.30;99.90
34873;DHT22;21084;51.098;14.506;2022-11-20T07:28:12;-6.10;99.90
34873;DHT22;21084;51.098;14.506;2022-11-20T07:30:42;-6.00;99.90
34873;DHT22;21084;51.098;14.506;2022-11-20T07:33:17;-5.80;99.90
34873;DHT22;21084;51.098;14.506;2022-11-20T07:35:50;-5.60;99.90
34873;DHT22;21084;51.098;14.506;2022-11-20T07:38:19;-5.40;99.90
34873;DHT22;21084;51.098;14.506;2022-11-20T07:40:48;-5.10;99.90
34873;DHT22;21084;51.098;14.506;2022-11-20T07:43:21;-4.90;99.90
34873;DHT22;21084;51.098;14.506;2022-11-20T07:45:50;-4.50;99.90
34873;DHT22;21084;51.098;14.506;2022-11-20T07:48:19;-4.30;99.90
34873;DHT22;21084;51.098;14.506;2022-11-20T07:50:52;-4.00;99.90
34873;DHT22;21084;51.098;14.506;2022-11-20T07:53:23;-3.80;99.90
34873;DHT22;21084;51.098;14.506;2022-11-20T07:55:58;-3.60;99.90
34873;DHT22;21084;51.098;14.506;2022-11-20T07:58:37;-3.50;99.90
34873;DHT22;21084;51.098;14.506;2022-11-20T08:01:09;-3.40;99.90
34873;DHT22;21084;51.098;14.506;2022-11-20T08:03:42;-3.30;99.90
34873;DHT22;21084;51.098;14.506;2022-11-20T08:06:51;-3.30;99.90
34873;DHT22;21084;51.098;14.506;2022-11-20T08:09:26;-3.20;99.90
34873;DHT22;21084;51.098;14.506;2022-11-20T08:12:03;-3.10;99.90
34873;DHT22;21084;51.098;14.506;2022-11-20T08:15:01;-2.90;99.90
34873;DHT22;21084;51.098;14.506;2022-11-20T08:17:47;-2.80;99.90
34873;DHT22;21084;51.098;14.506;2022-11-20T08:20:37;-2.80;99.90
34873;DHT22;21084;51.098;14.506;2022-11-20T08:23:17;-2.70;99.90
34873;DHT22;21084;51.098;14.506;2022-11-20T08:25:55;-2.60;99.90
34873;DHT22;21084;51.098;14.506;2022-11-20T08:28:30;-2.50;99.90
34873;DHT22;21084;51.098;14.506;2022-11-20T08:31:11;-2.50;99.90
34873;DHT22;21084;51.098;14.506;2022-11-20T08:33:51;-2.30;99.90
34873;DHT22;21084;51.098;14.506;2022-11-20T08:36:33;-2.20;99.90
34873;DHT22;21084;51.098;14.506;2022-11-20T08:39:14;-2.30;99.90
34873;DHT22;21084;51.098;14.506;2022-11-20T08:41:47;-2.20;99.90
34873;DHT22;21084;51.098;14.506;2022-11-20T08:44:18;-2.00;99.90
34873;DHT22;21084;51.098;14.506;2022-11-20T08:46:50;-2.00;99.90
34873;DHT22;21084;51.098;14.506;2022-11-20T08:49:23;-2.00;99.90
34873;DHT22;21084;51.098;14.506;2022-11-20T08:51:52;-1.80;99.90
34873;DHT22;21084;51.098;14.506;2022-11-20T08:54:31;-1.80;99.90
34873;DHT22;21084;51.098;14.506;2022-11-20T08:57:02;-1.80;99.90
34873;DHT22;21084;51.098;14.506;2022-11-20T08:59:36;-1.70;99.90
34873;DHT22;21084;51.098;14.506;2022-11-20T09:02:41;-1.60;99.90
34873;DHT22;21084;51.098;14.506;2022-11-20T09:05:18;-1.60;99.90
34873;DHT22;21084;51.098;14.506;2022-11-20T09:07:50;-1.60;99.90
34873;DHT22;21084;51.098;14.506;2022-11-20T09:10:20;-1.70;99.90
34873;DHT22;21084;51.098;14.506;2022-11-20T09:12:51;-1.60;99.90
34873;DHT22;21084;51.098;14.506;2022-11-20T09:15:21;-1.50;99.90
34873;DHT22;21084;51.098;14.506;2022-11-20T09:17:52;-1.70;99.90
34873;DHT22;21084;51.098;14.506;2022-11-20T09:20:22;-1.60;99.90
34873;DHT22;21084;51.098;14.506;2022-11-20T09:22:51;-1.60;99.90
34873;DHT22;21084;51.098;14.506;2022-11-20T09:25:25;-1.40;99.90
34873;DHT22;21084;51.098;14.506;2022-11-20T09:28:00;-1.40;99.90
34873;DHT22;21084;51.098;14.506;2022-11-20T09:30:29;-1.40;99.90
34873;DHT22;21084;51.098;14.506;2022-11-20T09:33:01;-1.30;99.90
34873;DHT22;21084;51.098;14.506;2022-11-20T09:38:24;-1.00;99.90
34873;DHT22;21084;51.098;14.506;2022-11-20T09:41:10;-0.80;99.90
34873;DHT22;21084;51.098;14.506;2022-11-20T09:44:00;-0.60;99.90
34873;DHT22;21084;51.098;14.506;2022-11-20T09:46:58;-0.90;99.90
34873;DHT22;21084;51.098;14.506;2022-11-20T09:50:12;-1.10;99.90
34873;DHT22;21084;51.098;14.506;2022-11-20T09:52:50;-1.10;99.90
34873;DHT22;21084;51.098;14.506;2022-11-20T09:55:24;-1.10;99.90
34873;DHT22;21084;51.098;14.506;2022-11-20T09:57:57;-1.00;99.90
34873;DHT22;21084;51.098;14.506;2022-11-20T10:00:29;-1.00;99.90
34873;DHT22;21084;51.098;14.506;2022-11-20T10:03:01;-1.10;99.90
34873;DHT22;21084;51.098;14.506;2022-11-20T10:05:37;-1.30;99.90
34873;DHT22;21084;51.098;14.506;2022-11-20T10:08:14;-1.20;99.90
34873;DHT22;21084;51.098;14.506;2022-11-20T10:10:49;-1.20;99.90
34873;DHT22;21084;51.098;14.506;2022-11-20T10:13:35;-1.30;99.90
34873;DHT22;21084;51.098;14.506;2022-11-20T10:16:19;-1.20;99.90
34873;DHT22;21084;51.098;14.506;2022-11-20T10:19:02;-1.20;99.90
34873;DHT22;21084;51.098;14.506;2022-11-20T10:21:49;-1.10;99.90
34873;DHT22;21084;51.098;14.506;2022-11-20T10:24:39;-1.10;99.90
34873;DHT22;21084;51.098;14.506;2022-11-20T10:30:11;-1.00;99.90
34873;DHT22;21084;51.098;14.506;2022-11-20T10:32:42;-1.10;99.90
34873;DHT22;21084;51.098;14.506;2022-11-20T10:35:20;-1.00;99.90
34873;DHT22;21084;51.098;14.506;2022-11-20T10:37:54;-0.90;99.90
34873;DHT22;21084;51.098;14.506;2022-11-20T10:40:31;-0.80;99.90
34873;DHT22;21084;51.098;14.506;2022-11-20T10:43:18;-0.60;99.90
34873;DHT22;21084;51.098;14.506;2022-11-20T10:45:57;-0.60;99.90
34873;DHT22;21084;51.098;14.506;2022-11-20T10:48:27;-0.70;99.90
34873;DHT22;21084;51.098;14.506;2022-11-20T10:51:08;-0.50;99.90
34873;DHT22;21084;51.098;14.506;2022-11-20T10:54:09;-0.40;99.90
34873;DHT22;21084;51.098;14.506;2022-11-20T10:56:42;-0.30;99.90
34873;DHT22;21084;51.098;14.506;2022-11-20T10:59:38;-0.30;99.90
34873;DHT22;21084;51.098;14.506;2022-11-20T11:02:30;-0.40;99.90
34873;DHT22;21084;51.098;14.506;2022-11-20T11:04:59;-0.30;99.90
34873;DHT22;21084;51.098;14.506;2022-11-20T11:07:40;-0.30;99.90
34873;DHT22;21084;51.098;14.506;2022-11-20T11:26:02;0.00;99.90
34873;DHT22;21084;51.098;14.506;2022-11-20T11:29:03;0.20;99.90
34873;DHT22;21084;51.098;14.506;2022-11-20T11:35:24;1.70;99.90
34873;DHT22;21084;51.098;14.506;2022-11-20T11:38:03;3.40;99.90
34873;DHT22;21084;51.098;14.506;2022-11-20T11:40:39;3.80;99.90
34873;DHT22;21084;51.098;14.506;2022-11-20T11:43:22;3.80;99.90
34873;DHT22;21084;51.098;14.506;2022-11-20T11:46:35;4.20;99.90
34873;DHT22;21084;51.098;14.506;2022-11-20T11:49:15;5.30;99.90
34873;DHT22;21084;51.098;14.506;2022-11-20T11:52:08;5.10;99.90
34873;DHT22;21084;51.098;14.506;2022-11-20T11:54:47;4.80;99.90
34873;DHT22;21084;51.098;14.506;2022-11-20T11:57:26;6.20;99.90
34873;DHT22;21084;51.098;14.506;2022-11-20T12:07:52;4.90;99.90
34873;DHT22;21084;51.098;14.506;2022-11-20T12:10:40;6.90;99.90
34873;DHT22;21084;51.098;14.506;2022-11-20T12:14:15;6.80;99.90
34873;DHT22;21084;51.098;14.506;2022-11-20T12:17:19;6.30;99.90
34873;DHT22;21084;51.098;14.506;2022-11-20T12:20:00;7.20;99.90
34873;DHT22;21084;51.098;14.506;2022-11-20T12:22:38;6.60;99.90
34873;DHT22;21084;51.098;14.506;2022-11-20T12:25:36;5.80;99.90
34873;DHT22;21084;51.098;14.506;2022-11-20T12:28:26;7.00;99.90
34873;DHT22;21084;51.098;14.506;2022-11-20T12:31:12;5.80;99.90
34873;DHT22;21084;51.098;14.506;2022-11-20T12:33:54;6.40;99.90
34873;DHT22;21084;51.098;14.506;2022-11-20T12:36:35;6.90;99.90
34873;DHT22;21084;51.098;14.506;2022-11-20T12:42:34;10.70;99.90
34873;DHT22;21084;51.098;14.506;2022-11-20T12:46:04;11.70;97.90
34873;DHT22;21084;51.098;14.506;2022-11-20T12:48:46;13.10;95.00
34873;DHT22;21084;51.098;14.506;2022-11-20T12:51:44;13.60;90.10
34873;DHT22;21084;51.098;14.506;2022-11-20T12:54:42;13.30;88.60
34873;DHT22;21084;51.098;14.506;2022-11-20T12:57:18;11.60;82.80
34873;DHT22;21084;51.098;14.506;2022-11-20T13:00:06;10.70;91.00
34873;DHT22;21084;51.098;14.506;2022-11-20T13:03:03;8.80;92.40
34873;DHT22;21084;51.098;14.506;2022-11-20T13:05:40;7.90;94.30
34873;DHT22;21084;51.098;14.506;2022-11-20T13:08:21;5.70;97.40
34873;DHT22;21084;51.098;14.506;2022-11-20T13:10:56;4.90;99.90
34873;DHT22;21084;51.098;14.506;2022-11-20T13:13:33;5.20;99.90
34873;DHT22;21084;51.098;14.506;2022-11-20T13:16:10;5.70;99.90
34873;DHT22;21084;51.098;14.506;2022-11-20T13:18:41;6.40;99.90
34873;DHT22;21084;51.098;14.506;2022-11-20T13:21:16;6.90;99.90
34873;DHT22;21084;51.098;14.506;2022-11-20T13:23:45;6.30;99.90
34873;DHT22;21084;51.098;14.506;2022-11-20T13:26:19;4.50;99.90
34873;DHT22;21084;51.098;14.506;2022-11-20T13:28:59;4.00;99.90
34873;DHT22;21084;51.098;14.506;2022-11-20T13:31:43;3.30;99.90
34873;DHT22;21084;51.098;14.506;2022-11-20T13:34:24;2.90;99.90
34873;DHT22;21084;51.098;14.506;2022-11-20T13:36:59;2.60;99.90
34873;DHT22;21084;51.098;14.506;2022-11-20T13:39:45;2.20;99.90
34873;DHT22;21084;51.098;14.506;2022-11-20T13:42:23;1.90;99.90
34873;DHT22;21084;51.098;14.506;2022-11-20T13:45:00;1.80;99.90
34873;DHT22;21084;51.098;14.506;2022-11-20T13:47:30;1.90;99.90
34873;DHT22;21084;51.098;14.506;2022-11-20T13:50:00;1.80;99.90
34873;DHT22;21084;51.098;14.506;2022-11-20T13:52:44;1.60;99.90
34873;DHT22;21084;51.098;14.506;2022-11-20T13:55:19;1.40;99.90
34873;DHT22;21084;51.098;14.506;2022-11-20T14:00:52;0.90;99.90
34873;DHT22;21084;51.098;14.506;2022-11-20T14:03:25;0.80;99.90
34873;DHT22;21084;51.098;14.506;2022-11-20T14:06:26;0.80;99.90
34873;DHT22;21084;51.098;14.506;2022-11-20T14:08:59;0.40;99.90
34873;DHT22;21084;51.098;14.506;2022-11-20T14:11:30;0.50;99.90
34873;DHT22;21084;51.098;14.506;2022-11-20T14:14:03;0.50;99.90
34873;DHT22;21084;51.098;14.506;2022-11-20T14:16:33;0.50;99.90
34873;DHT22;21084;51.098;14.506;2022-11-20T14:19:25;0.40;99.90
34873;DHT22;21084;51.098;14.506;2022-11-20T14:22:15;0.50;99.90
34873;DHT22;21084;51.098;14.506;2022-11-20T14:25:00;0.40;99.90
34873;DHT22;21084;51.098;14.506;2022-11-20T14:27:34;0.30;99.90
34873;DHT22;21084;51.098;14.506;2022-11-20T14:30:37;0.30;99.90
34873;DHT22;21084;51.098;14.506;2022-11-20T14:33:11;0.40;99.90
34873;DHT22;21084;51.098;14.506;2022-11-20T14:35:45;0.40;99.90
34873;DHT22;21084;51.098;14.506;2022-11-20T14:38:18;0.30;99.90
34873;DHT22;21084;51.098;14.506;2022-11-20T14:40:48;0.20;99.90
34873;DHT22;21084;51.098;14.506;2022-11-20T14:43:21;0.20;99.90
34873;DHT22;21084;51.098;14.506;2022-11-20T14:46:03;0.20;99.90
34873;DHT22;21084;51.098;14.506;2022-11-20T14:48:41;0.10;99.90
34873;DHT22;21084;51.098;14.506;2022-11-20T14:51:40;0.00;99.90
34873;DHT22;21084;51.098;14.506;2022-11-20T14:54:44;0.00;99.90
34873;DHT22;21084;51.098;14.506;2022-11-20T14:57:25;0.10;99.90
34873;DHT22;21084;51.098;14.506;2022-11-20T15:00:23;0.00;99.90
34873;DHT22;21084;51.098;14.506;2022-11-20T15:03:14;0.00;99.90
34873;DHT22;21084;51.098;14.506;2022-11-20T15:06:07;0.10;99.90
34873;DHT22;21084;51.098;14.506;2022-11-20T15:12:59;0.10;99.90
34873;DHT22;21084;51.098;14.506;2022-11-20T15:15:53;0.00;99.90
34873;DHT22;21084;51.098;14.506;2022-11-20T15:19:08;-0.10;99.90
34873;DHT22;21084;51.098;14.506;2022-11-20T15:22:10;-0.10;99.90
34873;DHT22;21084;51.098;14.506;2022-11-20T15:25:36;-0.10;99.90
34873;DHT22;21084;51.098;14.506;2022-11-20T15:29:41;-0.10;99.90
34873;DHT22;21084;51.098;14.506;2022-11-20T15:36:34;-0.10;99.90
34873;DHT22;21084;51.098;14.506;2022-11-20T15:40:16;-0.10;99.90
34873;DHT22;21084;51.098;14.506;2022-11-20T15:43:23;-0.10;99.90
34873;DHT22;21084;51.098;14.506;2022-11-20T15:46:25;-0.10;99.90
34873;DHT22;21084;51.098;14.506;2022-11-20T15:49:20;-0.20;99.90
34873;DHT22;21084;51.098;14.506;2022-11-20T15:52:09;-0.20;99.90
34873;DHT22;21084;51.098;14.506;2022-11-20T15:55:09;-0.20;99.90
34873;DHT22;21084;51.098;14.506;2022-11-20T15:58:14;-0.20;99.90
34873;DHT22;21084;51.098;14.506;2022-11-20T16:00:58;-0.30;99.90
34873;DHT22;21084;51.098;14.506;2022-11-20T16:03:49;-0.30;99.90
34873;DHT22;21084;51.098;14.506;2022-11-20T16:06:39;-0.40;99.90
34873;DHT22;21084;51.098;14.506;2022-11-20T16:09:12;-0.40;99.90
34873;DHT22;21084;51.098;14.506;2022-11-20T16:11:41;-0.50;99.90
34873;DHT22;21084;51.098;14.506;2022-11-20T16:14:29;-0.50;99.90
34873;DHT22;21084;51.098;14.506;2022-11-20T16:17:43;-0.60;99.90
34873;DHT22;21084;51.098;14.506;2022-11-20T16:20:26;-0.70;99.90
34873;DHT22;21084;51.098;14.506;2022-11-20T16:23:26;-0.70;99.90
34873;DHT22;21084;51.098;14.506;2022-11-20T16:26:09;-0.80;99.90
34873;DHT22;21084;51.098;14.506;2022-11-20T16:33:03;-1.00;99.90
34873;DHT22;21084;51.098;14.506;2022-11-20T16:38:46;-1.10;99.90
34873;DHT22;21084;51.098;14.506;2022-11-20T16:41:17;-1.10;99.90
34873;DHT22;21084;51.098;14.506;2022-11-20T16:46:58;-1.30;99.90
34873;DHT22;21084;51.098;14.506;2022-11-20T16:49:27;-1.40;99.90
34873;DHT22;21084;51.098;14.506;2022-11-20T16:52:25;-1.40;99.90
34873;DHT22;21084;51.098;14.506;2022-11-20T16:54:59;-1.50;99.90
34873;DHT22;21084;51.098;14.506;2022-11-20T16:57:28;-1.60;99.90
34873;DHT22;21084;51.098;14.506;2022-11-20T16:59:59;-1.70;99.90
34873;DHT22;21084;51.098;14.506;2022-11-20T17:03:07;-1.80;99.90
34873;DHT22;21084;51.098;14.506;2022-11-20T17:06:33;-2.00;99.90
34873;DHT22;21084;51.098;14.506;2022-11-20T17:09:41;-2.10;99.90
34873;DHT22;21084;51.098;14.506;2022-11-20T17:12:52;-2.30;99.90
34873;DHT22;21084;51.098;14.506;2022-11-20T17:15:47;-2.40;99.90
34873;DHT22;21084;51.098;14.506;2022-11-20T17:18:15;-2.60;99.90
34873;DHT22;21084;51.098;14.506;2022-11-20T17:20:50;-2.70;99.90